sensor_id;sensor_type;location;lat;lon;timestamp;pressure;altitude;pressure_sealevel;temperature;humidity
21760;BME280;11041;50.854;20.580;2023-06-14T00:00:39;98695.75;;;11.47;94.63
21760;BME280;11041;50.854;20.580;2023-06-14T00:03:27;98717.63;;;11.61;94.89
21760;BME280;11041;50.854;20.580;2023-06-14T00:05:53;98715.84;;;11.65;94.50
21760;BME280;11041;50.854;20.580;2023-06-14T00:08:20;98692.03;;;11.51;94.48
21760;BME280;11041;50.854;20.580;2023-06-14T00:10:49;98707.25;;;11.58;94.34
21760;BME280;11041;50.854;20.580;2023-06-14T00:13:15;98694.63;;;11.57;93.71
21760;BME280;11041;50.854;20.580;2023-06-14T00:15:43;98709.38;;;11.69;93.68
21760;BME280;11041;50.854;20.580;2023-06-14T00:18:09;98722.47;;;11.64;94.06
21760;BME280;11041;50.854;20.580;2023-06-14T00:20:37;98686.38;;;11.48;94.11
21760;BME280;11041;50.854;20.580;2023-06-14T00:23:05;98688.31;;;11.47;93.83
21760;BME280;11041;50.854;20.580;2023-06-14T00:25:32;98713.56;;;11.58;93.31
21760;BME280;11041;50.854;20.580;2023-06-14T00:27:58;98680.06;;;11.47;93.27
21760;BME280;11041;50.854;20.580;2023-06-14T00:30:26;98679.06;;;11.35;93.46
21760;BME280;11041;50.854;20.580;2023-06-14T00:32:56;98698.81;;;11.37;93.90
21760;BME280;11041;50.854;20.580;2023-06-14T00:35:24;98681.81;;;11.26;94.20
21760;BME280;11041;50.854;20.580;2023-06-14T00:37:51;98705.63;;;11.39;94.39
21760;BME280;11041;50.854;20.580;2023-06-14T00:40:18;98703.03;;;11.34;94.40
21760;BME280;11041;50.854;20.580;2023-06-14T00:42:44;98702.72;;;11.36;94.65
21760;BME280;11041;50.854;20.580;2023-06-14T00:45:11;98694.13;;;11.28;94.81
21760;BME280;11041;50.854;20.580;2023-06-14T00:47:41;98675.81;;;11.15;95.31
21760;BME280;11041;50.854;20.580;2023-06-14T00:50:10;98672.25;;;11.15;95.40
21760;BME280;11041;50.854;20.580;2023-06-14T00:52:37;98678.72;;;11.19;95.03
21760;BME280;11041;50.854;20.580;2023-06-14T00:55:05;98672.91;;;11.20;95.27
21760;BME280;11041;50.854;20.580;2023-06-14T00:57:32;98674.03;;;11.19;94.96
21760;BME280;11041;50.854;20.580;2023-06-14T00:59:58;98706.56;;;11.35;95.31
21760;BME280;11041;50.854;20.580;2023-06-14T01:02:25;98694.94;;;11.29;95.33
21760;BME280;11041;50.854;20.580;2023-06-14T01:04:52;98655.41;;;11.07;95.41
21760;BME280;11041;50.854;20.580;2023-06-14T01:08:15;98687.97;;;11.32;95.69
21760;BME280;11041;50.854;20.580;2023-06-14T01:11:02;98696.72;;;11.34;95.79
21760;BME280;11041;50.854;20.580;2023-06-14T01:13:43;98691.72;;;11.36;95.66
21760;BME280;11041;50.854;20.580;2023-06-14T01:16:12;98676.31;;;11.35;95.36
21760;BME280;11041;50.854;20.580;2023-06-14T01:18:41;98679.88;;;11.44;95.56
21760;BME280;11041;50.854;20.580;2023-06-14T01:21:26;98662.72;;;11.29;96.10
21760;BME280;11041;50.854;20.580;2023-06-14T01:23:54;98677.13;;;11.35;96.08
21760;BME280;11041;50.854;20.580;2023-06-14T01:26:25;98670.97;;;11.29;96.74
21760;BME280;11041;50.854;20.580;2023-06-14T01:28:55;98663.38;;;11.26;96.94
21760;BME280;11041;50.854;20.580;2023-06-14T01:31:25;98666.13;;;11.26;97.42
21760;BME280;11041;50.854;20.580;2023-06-14T01:33:53;98664.66;;;11.20;97.70
21760;BME280;11041;50.854;20.580;2023-06-14T01:36:24;98667.41;;;11.20;97.99
21760;BME280;11041;50.854;20.580;2023-06-14T01:38:53;98668.69;;;11.23;98.20
21760;BME280;11041;50.854;20.580;2023-06-14T01:41:23;98652.19;;;11.14;98.21
21760;BME280;11041;50.854;20.580;2023-06-14T01:43:52;98654.78;;;11.19;98.59
21760;BME280;11041;50.854;20.580;2023-06-14T01:46:20;98669.19;;;11.34;98.33
21760;BME280;11041;50.854;20.580;2023-06-14T01:48:46;98654.47;;;11.29;98.16
21760;BME280;11041;50.854;20.580;2023-06-14T01:51:14;98650.44;;;11.36;98.00
21760;BME280;11041;50.854;20.580;2023-06-14T01:53:40;98673.28;;;11.45;98.29
21760;BME280;11041;50.854;20.580;2023-06-14T01:56:07;98663.53;;;11.39;98.47
21760;BME280;11041;50.854;20.580;2023-06-14T01:58:33;98654.47;;;11.29;98.93
21760;BME280;11041;50.854;20.580;2023-06-14T02:01:00;98646.72;;;11.32;98.65
21760;BME280;11041;50.854;20.580;2023-06-14T02:03:27;98649.28;;;11.37;98.71
21760;BME280;11041;50.854;20.580;2023-06-14T02:05:53;98669.84;;;11.57;98.70
21760;BME280;11041;50.854;20.580;2023-06-14T02:08:21;98674.25;;;11.58;98.68
21760;BME280;11041;50.854;20.580;2023-06-14T02:10:49;98650.59;;;11.48;98.66
21760;BME280;11041;50.854;20.580;2023-06-14T02:13:16;98675.69;;;11.64;98.93
21760;BME280;11041;50.854;20.580;2023-06-14T02:15:43;98674.88;;;11.63;98.65
21760;BME280;11041;50.854;20.580;2023-06-14T02:18:10;98678.94;;;11.75;98.63
21760;BME280;11041;50.854;20.580;2023-06-14T02:20:37;98672.44;;;11.70;98.41
21760;BME280;11041;50.854;20.580;2023-06-14T02:23:04;98668.41;;;11.68;98.60
21760;BME280;11041;50.854;20.580;2023-06-14T02:25:31;98676.19;;;11.75;98.44
21760;BME280;11041;50.854;20.580;2023-06-14T02:27:57;98661.59;;;11.65;98.15
21760;BME280;11041;50.854;20.580;2023-06-14T02:30:24;98649.97;;;11.60;98.28
21760;BME280;11041;50.854;20.580;2023-06-14T02:32:50;98665.19;;;11.57;98.60
21760;BME280;11041;50.854;20.580;2023-06-14T02:35:17;98668.72;;;11.49;99.11
21760;BME280;11041;50.854;20.580;2023-06-14T02:37:44;98652.03;;;11.37;99.32
21760;BME280;11041;50.854;20.580;2023-06-14T02:40:11;98652.53;;;11.30;100.00
21760;BME280;11041;50.854;20.580;2023-06-14T02:42:37;98670.66;;;11.31;100.00
21760;BME280;11041;50.854;20.580;2023-06-14T02:45:05;98670.66;;;11.31;100.00
21760;BME280;11041;50.854;20.580;2023-06-14T02:47:31;98656.22;;;11.25;100.00
21760;BME280;11041;50.854;20.580;2023-06-14T02:49:58;98677.28;;;11.39;100.00
21760;BME280;11041;50.854;20.580;2023-06-14T02:52:24;98676.31;;;11.35;100.00
21760;BME280;11041;50.854;20.580;2023-06-14T02:54:51;98680.84;;;11.30;100.00
21760;BME280;11041;50.854;20.580;2023-06-14T02:57:18;98682.97;;;11.34;100.00
21760;BME280;11041;50.854;20.580;2023-06-14T02:59:44;98685.88;;;11.37;100.00
21760;BME280;11041;50.854;20.580;2023-06-14T03:02:11;98663.69;;;11.34;100.00
21760;BME280;11041;50.854;20.580;2023-06-14T03:04:37;98663.69;;;11.34;100.00
21760;BME280;11041;50.854;20.580;2023-06-14T03:07:05;98686.38;;;11.48;100.00
21760;BME280;11041;50.854;20.580;2023-06-14T03:09:39;98664.50;;;11.34;100.00
21760;BME280;11041;50.854;20.580;2023-06-14T03:12:07;98671.13;;;11.42;100.00
21760;BME280;11041;50.854;20.580;2023-06-14T03:14:34;98677.13;;;11.44;100.00
21760;BME280;11041;50.854;20.580;2023-06-14T03:17:02;98658.84;;;11.39;100.00
21760;BME280;11041;50.854;20.580;2023-06-14T03:19:28;98680.41;;;11.55;100.00
21760;BME280;11041;50.854;20.580;2023-06-14T03:21:55;98654.78;;;11.37;100.00
21760;BME280;11041;50.854;20.580;2023-06-14T03:24:26;98683.94;;;11.55;100.00
21760;BME280;11041;50.854;20.580;2023-06-14T03:27:03;98658.53;;;11.41;100.00
21760;BME280;11041;50.854;20.580;2023-06-14T03:29:30;98658.38;;;11.46;100.00
21760;BME280;11041;50.854;20.580;2023-06-14T03:32:00;98672.63;;;11.48;100.00
21760;BME280;11041;50.854;20.580;2023-06-14T03:34:27;98666.13;;;11.44;100.00
21760;BME280;11041;50.854;20.580;2023-06-14T03:36:54;98654.78;;;11.37;100.00
21760;BME280;11041;50.854;20.580;2023-06-14T03:39:21;98676.47;;;11.47;100.00
21760;BME280;11041;50.854;20.580;2023-06-14T03:41:47;98671.97;;;11.51;100.00
21760;BME280;11041;50.854;20.580;2023-06-14T03:44:17;98651.25;;;11.45;100.00
21760;BME280;11041;50.854;20.580;2023-06-14T03:46:46;98655.94;;;11.53;100.00
21760;BME280;11041;50.854;20.580;2023-06-14T03:49:13;98662.91;;;11.68;100.00
21760;BME280;11041;50.854;20.580;2023-06-14T03:51:40;98687.69;;;11.94;100.00
21760;BME280;11041;50.854;20.580;2023-06-14T03:54:07;98664.50;;;11.86;100.00
21760;BME280;11041;50.854;20.580;2023-06-14T03:56:34;98688.63;;;12.07;100.00
21760;BME280;11041;50.854;20.580;2023-06-14T03:59:01;98662.06;;;11.85;98.85
21760;BME280;11041;50.854;20.580;2023-06-14T04:01:28;98684.75;;;11.99;98.62
21760;BME280;11041;50.854;20.580;2023-06-14T04:03:57;98661.44;;;11.88;99.30
21760;BME280;11041;50.854;20.580;2023-06-14T04:06:24;98673.44;;;11.92;99.52
21760;BME280;11041;50.854;20.580;2023-06-14T04:08:52;98686.69;;;12.07;99.93
21760;BME280;11041;50.854;20.580;2023-06-14T04:11:18;98682.00;;;12.08;99.82
21760;BME280;11041;50.854;20.580;2023-06-14T04:13:44;98702.03;;;12.26;99.45
21760;BME280;11041;50.854;20.580;2023-06-14T04:16:11;98683.25;;;12.19;99.46
21760;BME280;11041;50.854;20.580;2023-06-14T04:18:37;98692.00;;;12.30;99.56
21760;BME280;11041;50.854;20.580;2023-06-14T04:21:04;98712.25;;;12.34;99.16
21760;BME280;11041;50.854;20.580;2023-06-14T04:23:30;98694.44;;;12.23;98.57
21760;BME280;11041;50.854;20.580;2023-06-14T04:25:59;98715.16;;;12.29;98.16
21760;BME280;11041;50.854;20.580;2023-06-14T04:28:29;98710.47;;;12.29;97.98
21760;BME280;11041;50.854;20.580;2023-06-14T04:30:56;98703.50;;;12.23;98.06
21760;BME280;11041;50.854;20.580;2023-06-14T04:33:23;98702.84;;;12.26;98.55
21760;BME280;11041;50.854;20.580;2023-06-14T04:35:51;98702.84;;;12.26;98.02
21760;BME280;11041;50.854;20.580;2023-06-14T04:38:20;98689.13;;;12.18;97.96
21760;BME280;11041;50.854;20.580;2023-06-14T04:40:51;98713.38;;;12.33;98.29
21760;BME280;11041;50.854;20.580;2023-06-14T04:43:19;98709.66;;;12.29;98.21
21760;BME280;11041;50.854;20.580;2023-06-14T04:45:52;98704.81;;;12.26;97.50
21760;BME280;11041;50.854;20.580;2023-06-14T04:48:22;98688.63;;;12.07;97.02
21760;BME280;11041;50.854;20.580;2023-06-14T04:50:48;98672.13;;;11.98;98.05
21760;BME280;11041;50.854;20.580;2023-06-14T04:53:20;98682.81;;;12.08;97.55
21760;BME280;11041;50.854;20.580;2023-06-14T04:55:49;98684.59;;;12.13;97.30
21760;BME280;11041;50.854;20.580;2023-06-14T04:58:16;98707.72;;;12.29;97.50
21760;BME280;11041;50.854;20.580;2023-06-14T05:00:43;98711.59;;;12.37;97.51
21760;BME280;11041;50.854;20.580;2023-06-14T05:03:11;98709.50;;;12.34;97.35
21760;BME280;11041;50.854;20.580;2023-06-14T05:05:41;98715.47;;;12.36;96.41
21760;BME280;11041;50.854;20.580;2023-06-14T05:08:08;98711.94;;;12.27;95.96
21760;BME280;11041;50.854;20.580;2023-06-14T05:10:36;98709.03;;;12.23;96.31
21760;BME280;11041;50.854;20.580;2023-06-14T05:13:03;98710.00;;;12.27;96.76
21760;BME280;11041;50.854;20.580;2023-06-14T05:15:30;98716.94;;;12.33;96.38
21760;BME280;11041;50.854;20.580;2023-06-14T05:17:56;98716.75;;;12.39;96.50
21760;BME280;11041;50.854;20.580;2023-06-14T05:20:24;98723.59;;;12.41;96.10
21760;BME280;11041;50.854;20.580;2023-06-14T05:22:53;98700.75;;;12.32;95.70
21760;BME280;11041;50.854;20.580;2023-06-14T05:25:20;98697.66;;;12.33;95.70
21760;BME280;11041;50.854;20.580;2023-06-14T05:27:48;98708.66;;;12.42;95.50
21760;BME280;11041;50.854;20.580;2023-06-14T05:30:15;98727.78;;;12.47;95.72
21760;BME280;11041;50.854;20.580;2023-06-14T05:32:42;98709.00;;;12.32;95.02
21760;BME280;11041;50.854;20.580;2023-06-14T05:35:09;98704.97;;;12.29;96.18
21760;BME280;11041;50.854;20.580;2023-06-14T05:37:37;98714.03;;;12.30;95.81
21760;BME280;11041;50.854;20.580;2023-06-14T05:40:08;98715.63;;;12.40;96.61
21760;BME280;11041;50.854;20.580;2023-06-14T05:42:36;98704.75;;;12.52;96.94
21760;BME280;11041;50.854;20.580;2023-06-14T05:45:02;98694.50;;;12.52;96.27
21760;BME280;11041;50.854;20.580;2023-06-14T05:47:29;98702.25;;;12.68;95.92
21760;BME280;11041;50.854;20.580;2023-06-14T05:49:55;98712.88;;;12.87;95.34
21760;BME280;11041;50.854;20.580;2023-06-14T05:52:22;98700.72;;;12.79;94.27
21760;BME280;11041;50.854;20.580;2023-06-14T05:54:48;98721.28;;;12.90;93.22
21760;BME280;11041;50.854;20.580;2023-06-14T05:57:16;98709.84;;;12.79;93.61
21760;BME280;11041;50.854;20.580;2023-06-14T05:59:42;98700.09;;;12.82;93.46
21760;BME280;11041;50.854;20.580;2023-06-14T06:02:09;98713.59;;;12.75;92.77
21760;BME280;11041;50.854;20.580;2023-06-14T06:04:35;98729.94;;;12.80;92.70
21760;BME280;11041;50.854;20.580;2023-06-14T06:07:02;98719.22;;;12.78;92.98
21760;BME280;11041;50.854;20.580;2023-06-14T06:09:30;98724.91;;;12.82;93.77
21760;BME280;11041;50.854;20.580;2023-06-14T06:11:56;98711.94;;;12.83;93.67
21760;BME280;11041;50.854;20.580;2023-06-14T06:14:22;98715.28;;;12.97;93.72
21760;BME280;11041;50.854;20.580;2023-06-14T06:16:49;98713.94;;;13.03;92.38
21760;BME280;11041;50.854;20.580;2023-06-14T06:19:15;98748.41;;;13.18;91.99
21760;BME280;11041;50.854;20.580;2023-06-14T06:21:42;98734.44;;;13.23;92.09
21760;BME280;11041;50.854;20.580;2023-06-14T06:24:08;98736.06;;;13.33;91.93
21760;BME280;11041;50.854;20.580;2023-06-14T06:27:01;98727.22;;;13.39;91.60
21760;BME280;11041;50.854;20.580;2023-06-14T06:29:52;98713.25;;;13.45;90.98
21760;BME280;11041;50.854;20.580;2023-06-14T06:32:44;98737.44;;;13.69;90.43
21760;BME280;11041;50.854;20.580;2023-06-14T06:35:35;98722.88;;;13.59;88.99
21760;BME280;11041;50.854;20.580;2023-06-14T06:38:28;98723.13;;;13.46;87.90
21760;BME280;11041;50.854;20.580;2023-06-14T06:41:19;98736.19;;;13.36;89.52
21760;BME280;11041;50.854;20.580;2023-06-14T06:44:10;98721.63;;;13.27;90.15
21760;BME280;11041;50.854;20.580;2023-06-14T06:47:02;98747.66;;;13.47;89.83
21760;BME280;11041;50.854;20.580;2023-06-14T07:12:08;98764.28;;;14.22;86.43
21760;BME280;11041;50.854;20.580;2023-06-14T07:14:35;98764.53;;;14.30;87.35
21760;BME280;11041;50.854;20.580;2023-06-14T07:17:01;98762.72;;;14.34;86.76
21760;BME280;11041;50.854;20.580;2023-06-14T07:19:28;98764.03;;;14.48;87.52
21760;BME280;11041;50.854;20.580;2023-06-14T07:21:56;98767.34;;;14.63;87.39
21760;BME280;11041;50.854;20.580;2023-06-14T07:24:25;98754.88;;;14.57;85.33
21760;BME280;11041;50.854;20.580;2023-06-14T07:26:51;98767.56;;;14.58;85.72
21760;BME280;11041;50.854;20.580;2023-06-14T07:29:17;98768.25;;;14.67;85.25
21760;BME280;11041;50.854;20.580;2023-06-14T07:31:44;98763.78;;;14.62;84.53
21760;BME280;11041;50.854;20.580;2023-06-14T07:34:11;98764.25;;;14.77;85.57
21760;BME280;11041;50.854;20.580;2023-06-14T07:36:37;98772.91;;;14.87;84.31
21760;BME280;11041;50.854;20.580;2023-06-14T07:39:04;98778.22;;;14.93;83.02
21760;BME280;11041;50.854;20.580;2023-06-14T07:41:32;98764.72;;;14.91;83.24
21760;BME280;11041;50.854;20.580;2023-06-14T07:43:59;98778.00;;;14.98;83.25
21760;BME280;11041;50.854;20.580;2023-06-14T07:46:26;98774.16;;;14.78;81.83
21760;BME280;11041;50.854;20.580;2023-06-14T07:48:53;98785.69;;;14.67;82.38
21760;BME280;11041;50.854;20.580;2023-06-14T07:51:19;98784.66;;;14.51;83.10
21760;BME280;11041;50.854;20.580;2023-06-14T07:53:46;98783.63;;;14.43;83.78
21760;BME280;11041;50.854;20.580;2023-06-14T07:56:13;98792.03;;;14.47;84.26
21760;BME280;11041;50.854;20.580;2023-06-14T07:58:39;98783.88;;;14.51;84.82
21760;BME280;11041;50.854;20.580;2023-06-14T08:01:06;98786.44;;;14.56;85.18
21760;BME280;11041;50.854;20.580;2023-06-14T08:03:34;98792.56;;;14.61;84.86
21760;BME280;11041;50.854;20.580;2023-06-14T08:06:01;98792.69;;;14.65;84.90
21760;BME280;11041;50.854;20.580;2023-06-14T08:08:28;98790.19;;;14.72;86.02
21760;BME280;11041;50.854;20.580;2023-06-14T08:10:57;98792.16;;;14.84;86.61
21760;BME280;11041;50.854;20.580;2023-06-14T08:13:24;98798.63;;;14.88;86.62
21760;BME280;11041;50.854;20.580;2023-06-14T08:15:51;98800.81;;;14.82;87.28
21760;BME280;11041;50.854;20.580;2023-06-14T08:18:18;98796.31;;;14.78;87.23
21760;BME280;11041;50.854;20.580;2023-06-14T08:20:44;98797.31;;;14.73;86.03
21760;BME280;11041;50.854;20.580;2023-06-14T08:23:11;98791.22;;;14.67;86.95
21760;BME280;11041;50.854;20.580;2023-06-14T08:25:37;98800.66;;;14.79;87.22
21760;BME280;11041;50.854;20.580;2023-06-14T08:28:04;98797.94;;;14.91;87.32
21760;BME280;11041;50.854;20.580;2023-06-14T08:30:31;98805.22;;;15.08;86.57
21760;BME280;11041;50.854;20.580;2023-06-14T08:32:57;98799.03;;;15.11;85.96
21760;BME280;11041;50.854;20.580;2023-06-14T08:35:23;98790.59;;;15.20;86.21
21760;BME280;11041;50.854;20.580;2023-06-14T08:37:50;98781.63;;;15.23;85.01
21760;BME280;11041;50.854;20.580;2023-06-14T08:40:22;98785.66;;;15.38;85.30
21760;BME280;11041;50.854;20.580;2023-06-14T08:42:54;98800.84;;;15.56;85.50
21760;BME280;11041;50.854;20.580;2023-06-14T08:45:22;98795.09;;;15.61;84.18
21760;BME280;11041;50.854;20.580;2023-06-14T08:47:50;98798.34;;;15.75;84.83
21760;BME280;11041;50.854;20.580;2023-06-14T08:50:22;98791.09;;;15.71;85.18
21760;BME280;11041;50.854;20.580;2023-06-14T08:52:56;98785.88;;;15.57;84.64
21760;BME280;11041;50.854;20.580;2023-06-14T08:55:23;98790.81;;;15.39;84.06
21760;BME280;11041;50.854;20.580;2023-06-14T08:57:58;98780.91;;;15.26;84.43
21760;BME280;11041;50.854;20.580;2023-06-14T09:00:27;98772.50;;;15.34;86.82
21760;BME280;11041;50.854;20.580;2023-06-14T09:02:55;98786.59;;;15.42;86.00
21760;BME280;11041;50.854;20.580;2023-06-14T09:05:25;98792.13;;;15.54;84.34
21760;BME280;11041;50.854;20.580;2023-06-14T09:07:53;98784.94;;;15.53;84.71
21760;BME280;11041;50.854;20.580;2023-06-14T09:10:27;98785.75;;;15.53;83.07
21760;BME280;11041;50.854;20.580;2023-06-14T09:12:55;98786.34;;;15.59;84.92
21760;BME280;11041;50.854;20.580;2023-06-14T09:15:23;98784.13;;;15.77;84.43
21760;BME280;11041;50.854;20.580;2023-06-14T09:17:50;98792.09;;;15.91;82.96
21760;BME280;11041;50.854;20.580;2023-06-14T09:20:17;98794.59;;;15.96;81.29
21760;BME280;11041;50.854;20.580;2023-06-14T09:22:45;98789.56;;;15.86;80.37
21760;BME280;11041;50.854;20.580;2023-06-14T09:25:12;98794.31;;;15.73;78.71
21760;BME280;11041;50.854;20.580;2023-06-14T09:27:42;98795.44;;;15.60;79.68
21760;BME280;11041;50.854;20.580;2023-06-14T09:30:11;98792.13;;;15.42;79.59
21760;BME280;11041;50.854;20.580;2023-06-14T09:32:40;98785.28;;;15.27;78.86
21760;BME280;11041;50.854;20.580;2023-06-14T09:35:08;98798.66;;;15.25;79.69
21760;BME280;11041;50.854;20.580;2023-06-14T09:37:36;98807.66;;;15.22;80.25
21760;BME280;11041;50.854;20.580;2023-06-14T09:40:07;98805.03;;;15.25;81.74
21760;BME280;11041;50.854;20.580;2023-06-14T09:42:34;98799.72;;;15.20;80.54
21760;BME280;11041;50.854;20.580;2023-06-14T09:45:03;98800.41;;;15.17;81.42
21760;BME280;11041;50.854;20.580;2023-06-14T09:47:30;98796.03;;;15.16;83.25
21760;BME280;11041;50.854;20.580;2023-06-14T09:49:57;98809.63;;;15.21;83.23
21760;BME280;11041;50.854;20.580;2023-06-14T09:52:24;98801.09;;;15.14;82.40
21760;BME280;11041;50.854;20.580;2023-06-14T09:54:54;98803.84;;;15.02;83.54
21760;BME280;11041;50.854;20.580;2023-06-14T09:57:23;98801.53;;;14.91;83.73
21760;BME280;11041;50.854;20.580;2023-06-14T09:59:57;98806.81;;;14.84;84.63
21760;BME280;11041;50.854;20.580;2023-06-14T10:02:42;98808.50;;;14.77;85.15
21760;BME280;11041;50.854;20.580;2023-06-14T10:05:17;98799.94;;;14.69;86.06
21760;BME280;11041;50.854;20.580;2023-06-14T10:07:59;98800.16;;;14.64;86.66
21760;BME280;11041;50.854;20.580;2023-06-14T10:10:26;98795.22;;;14.58;86.11
21760;BME280;11041;50.854;20.580;2023-06-14T10:12:54;98793.44;;;14.53;86.19
21760;BME280;11041;50.854;20.580;2023-06-14T10:15:42;98810.69;;;14.50;87.03
21760;BME280;11041;50.854;20.580;2023-06-14T10:21:28;98807.00;;;14.46;86.95
21760;BME280;11041;50.854;20.580;2023-06-14T10:24:13;98812.06;;;14.44;87.26
21760;BME280;11041;50.854;20.580;2023-06-14T10:26:57;98796.34;;;14.36;86.43
21760;BME280;11041;50.854;20.580;2023-06-14T10:29:25;98794.78;;;14.47;87.62
21760;BME280;11041;50.854;20.580;2023-06-14T10:31:58;98798.50;;;14.51;87.60
21760;BME280;11041;50.854;20.580;2023-06-14T10:34:28;98786.97;;;14.49;87.01
21760;BME280;11041;50.854;20.580;2023-06-14T10:37:13;98793.25;;;14.58;87.53
21760;BME280;11041;50.854;20.580;2023-06-14T10:39:42;98781.16;;;14.63;87.51
21760;BME280;11041;50.854;20.580;2023-06-14T10:42:10;98792.22;;;14.63;88.52
21760;BME280;11041;50.854;20.580;2023-06-14T10:44:47;98797.16;;;14.57;86.54
21760;BME280;11041;50.854;20.580;2023-06-14T10:47:24;98790.88;;;14.48;87.35
21760;BME280;11041;50.854;20.580;2023-06-14T10:50:04;98801.00;;;14.44;87.66
21760;BME280;11041;50.854;20.580;2023-06-14T10:52:41;98798.44;;;14.39;88.16
21760;BME280;11041;50.854;20.580;2023-06-14T10:55:14;98789.78;;;14.40;89.72
21760;BME280;11041;50.854;20.580;2023-06-14T10:57:45;98791.28;;;14.38;90.25
21760;BME280;11041;50.854;20.580;2023-06-14T11:00:14;98806.38;;;14.40;88.11
21760;BME280;11041;50.854;20.580;2023-06-14T11:05:54;98796.16;;;14.41;88.95
21760;BME280;11041;50.854;20.580;2023-06-14T11:11:36;98795.44;;;14.32;87.58
21760;BME280;11041;50.854;20.580;2023-06-14T11:14:05;98788.94;;;14.27;88.39
21760;BME280;11041;50.854;20.580;2023-06-14T11:16:31;98786.59;;;14.38;89.21
21760;BME280;11041;50.854;20.580;2023-06-14T11:19:01;98780.97;;;14.47;88.78
21760;BME280;11041;50.854;20.580;2023-06-14T11:21:33;98784.81;;;14.55;87.90
21760;BME280;11041;50.854;20.580;2023-06-14T11:23:59;98772.25;;;14.57;87.49
21760;BME280;11041;50.854;20.580;2023-06-14T11:26:31;98772.50;;;14.64;87.44
21760;BME280;11041;50.854;20.580;2023-06-14T11:29:01;98772.66;;;14.68;87.55
21760;BME280;11041;50.854;20.580;2023-06-14T11:31:29;98777.63;;;14.75;86.59
21760;BME280;11041;50.854;20.580;2023-06-14T11:33:58;98773.72;;;14.88;87.28
21760;BME280;11041;50.854;20.580;2023-06-14T11:36:30;98772.38;;;15.06;88.01
21760;BME280;11041;50.854;20.580;2023-06-14T11:39:02;98754.16;;;15.18;85.46
21760;BME280;11041;50.854;20.580;2023-06-14T11:41:36;98771.69;;;15.34;83.84
21760;BME280;11041;50.854;20.580;2023-06-14T11:44:04;98768.66;;;15.39;83.45
21760;BME280;11041;50.854;20.580;2023-06-14T11:46:31;98768.47;;;15.44;83.32
21760;BME280;11041;50.854;20.580;2023-06-14T11:48:57;98769.47;;;15.64;83.68
21760;BME280;11041;50.854;20.580;2023-06-14T11:51:25;98758.41;;;15.76;82.13
21760;BME280;11041;50.854;20.580;2023-06-14T11:53:51;98761.47;;;15.87;81.03
21760;BME280;11041;50.854;20.580;2023-06-14T11:56:19;98761.47;;;15.87;81.29
21760;BME280;11041;50.854;20.580;2023-06-14T11:58:46;98762.56;;;15.83;80.83
21760;BME280;11041;50.854;20.580;2023-06-14T12:01:19;98757.34;;;15.81;81.98
21760;BME280;11041;50.854;20.580;2023-06-14T12:03:54;98748.38;;;15.72;80.34
21760;BME280;11041;50.854;20.580;2023-06-14T12:06:30;98752.41;;;15.74;80.72
21760;BME280;11041;50.854;20.580;2023-06-14T12:09:06;98755.63;;;15.64;81.13
21760;BME280;11041;50.854;20.580;2023-06-14T12:11:39;98759.19;;;15.65;81.12
21760;BME280;11041;50.854;20.580;2023-06-14T12:14:06;98759.19;;;15.65;82.05
21760;BME280;11041;50.854;20.580;2023-06-14T12:16:40;98751.94;;;15.60;82.64
21760;BME280;11041;50.854;20.580;2023-06-14T12:19:15;98756.91;;;15.54;83.50
21760;BME280;11041;50.854;20.580;2023-06-14T12:21:46;98765.09;;;15.51;84.03
21760;BME280;11041;50.854;20.580;2023-06-14T12:24:17;98748.97;;;15.41;84.38
21760;BME280;11041;50.854;20.580;2023-06-14T12:26:43;98756.22;;;15.45;84.09
21760;BME280;11041;50.854;20.580;2023-06-14T12:29:10;98759.91;;;15.49;84.48
21760;BME280;11041;50.854;20.580;2023-06-14T12:31:38;98742.47;;;15.49;85.28
21760;BME280;11041;50.854;20.580;2023-06-14T12:34:05;98755.66;;;15.52;83.58
21760;BME280;11041;50.854;20.580;2023-06-14T12:36:31;98750.91;;;15.52;84.02
21760;BME280;11041;50.854;20.580;2023-06-14T12:38:58;98747.69;;;15.50;84.09
21760;BME280;11041;50.854;20.580;2023-06-14T12:41:24;98754.16;;;15.54;84.34
21760;BME280;11041;50.854;20.580;2023-06-14T12:43:52;98744.44;;;15.48;84.63
21760;BME280;11041;50.854;20.580;2023-06-14T12:46:19;98746.06;;;15.49;85.38
21760;BME280;11041;50.854;20.580;2023-06-14T12:48:47;98752.88;;;15.52;85.21
21760;BME280;11041;50.854;20.580;2023-06-14T12:51:13;98747.09;;;15.57;85.16
21760;BME280;11041;50.854;20.580;2023-06-14T12:53:40;98744.00;;;15.59;84.57
21760;BME280;11041;50.854;20.580;2023-06-14T12:56:07;98748.25;;;15.56;84.30
21760;BME280;11041;50.854;20.580;2023-06-14T12:58:33;98751.38;;;15.54;84.57
21760;BME280;11041;50.854;20.580;2023-06-14T13:01:00;98743.53;;;15.44;84.54
21760;BME280;11041;50.854;20.580;2023-06-14T13:03:26;98740.88;;;15.36;85.44
21760;BME280;11041;50.854;20.580;2023-06-14T13:05:53;98738.13;;;15.36;85.78
21760;BME280;11041;50.854;20.580;2023-06-14T13:08:19;98748.25;;;15.44;85.63
21760;BME280;11041;50.854;20.580;2023-06-14T13:10:46;98737.09;;;15.40;86.33
21760;BME280;11041;50.854;20.580;2023-06-14T13:13:12;98743.19;;;15.46;86.98
21760;BME280;11041;50.854;20.580;2023-06-14T13:15:40;98746.31;;;15.44;87.34
21760;BME280;11041;50.854;20.580;2023-06-14T13:18:06;98731.53;;;15.40;87.04
21760;BME280;11041;50.854;20.580;2023-06-14T13:20:33;98735.44;;;15.39;88.13
21760;BME280;11041;50.854;20.580;2023-06-14T13:22:59;98742.72;;;15.44;88.09
21760;BME280;11041;50.854;20.580;2023-06-14T13:25:26;98732.59;;;15.36;88.29
21760;BME280;11041;50.854;20.580;2023-06-14T13:27:52;98735.34;;;15.36;90.22
21760;BME280;11041;50.854;20.580;2023-06-14T13:30:19;98727.84;;;15.36;89.99